Time;durP1;ratioP1;P1;durP2;ratioP2;P2;SDS_P1;SDS_P2;PMS_P1;PMS_P2;Temp;Humidity;BMP_temperature;BMP_pressure;BME280_temperature;BME280_humidity;BME280_pressure;Samples;Min_cycle;Max_cycle;Signal;HPM_P1;HPM_P2
2021/05/06 00:33:28;;;;;;;15.07;11.13;;;;;;;19.71;55.74;99000.75;5010094;28;20026;-38
2021/05/06 00:35:53;;;;;;;15.98;10.95;;;;;;;19.62;55.91;98995.13;5010278;28;20091;-38
2021/05/06 00:38:23;;;;;;;17.58;10.68;;;;;;;19.68;55.60;98999.38;5010164;28;20026;-38
2021/05/06 01:09:22;;;;;;;11.90;9.82;;;;;;;18.11;59.15;98999.78;5033192;28;20026;-37
2021/05/06 01:11:56;;;;;;;12.55;10.10;;;;;;;18.29;58.74;99001.09;5033050;28;20040;-37
2021/05/06 01:14:21;;;;;;;12.25;8.88;;;;;;;18.47;58.19;98999.72;5033183;28;20041;-37
2021/05/06 01:16:47;;;;;;;12.45;9.30;;;;;;;18.67;57.08;98993.44;5032907;28;20410;-37
2021/05/06 01:19:12;;;;;;;13.48;9.98;;;;;;;18.46;57.96;99008.88;5032992;28;20021;-37
2021/05/06 01:21:38;;;;;;;12.75;9.48;;;;;;;18.77;57.42;98996.09;5033272;28;20083;-38
2021/05/06 01:24:04;;;;;;;12.23;9.45;;;;;;;18.93;56.86;98999.59;5032863;28;20025;-37
2021/05/06 01:26:36;;;;;;;12.77;9.60;;;;;;;19.00;56.53;99016.28;5032953;28;20033;-37
2021/05/06 01:29:06;;;;;;;13.60;9.07;;;;;;;19.04;56.33;99011.09;5032826;28;20025;-38
2021/05/06 01:31:35;;;;;;;12.18;9.00;;;;;;;18.91;56.93;99020.63;5033004;28;20071;-38
2021/05/06 01:34:17;;;;;;;11.63;9.05;;;;;;;19.03;56.32;99026.50;5032991;28;20464;-38
2021/05/06 01:36:53;;;;;;;12.82;9.52;;;;;;;18.98;56.87;99025.69;5032698;28;20021;-38
2021/05/06 01:40:02;;;;;;;12.13;9.10;;;;;;;18.86;57.10;99036.81;5032691;28;20441;-38
2021/05/06 01:45:42;;;;;;;12.38;8.65;;;;;;;18.74;57.22;99040.59;5022342;28;20413;-38
2021/05/06 01:48:10;;;;;;;13.93;9.38;;;;;;;18.61;57.60;99043.84;5031961;28;20068;-38
2021/05/06 01:59:12;;;;;;;15.52;10.90;;;;;;;17.83;60.43;99046.84;5032369;28;20033;-36
2021/05/06 02:01:27;;;;;;;14.90;10.57;;;;;;;17.63;61.12;99055.69;5031030;28;20481;-38
2021/05/06 02:03:53;;;;;;;15.80;10.98;;;;;;;17.56;61.11;99051.38;5032456;28;20025;-38
2021/05/06 02:06:19;;;;;;;15.93;10.52;;;;;;;17.63;61.36;99051.13;5032440;28;20363;-38
2021/05/06 02:08:45;;;;;;;16.80;10.85;;;;;;;17.50;61.11;99065.91;5032121;28;20033;-38
2021/05/06 02:11:11;;;;;;;16.63;10.43;;;;;;;17.60;60.92;99054.34;5031593;28;20405;-37
2021/05/06 02:13:36;;;;;;;17.38;10.55;;;;;;;17.81;59.51;99046.31;5031958;28;20045;-38
2021/05/06 02:16:06;;;;;;;16.60;10.45;;;;;;;17.92;59.53;99043.38;5032226;28;20406;-38
2021/05/06 02:18:35;;;;;;;12.63;9.80;;;;;;;17.89;59.58;99045.81;5031671;28;20028;-38
2021/05/06 02:21:01;;;;;;;14.77;9.35;;;;;;;18.10;58.13;99047.41;5031707;28;20397;-38
2021/05/06 02:23:26;;;;;;;15.15;9.23;;;;;;;18.12;58.05;99050.63;5031804;28;20033;-38
2021/05/06 02:25:52;;;;;;;13.57;9.25;;;;;;;18.11;58.17;99038.28;5031893;28;20025;-38
2021/05/06 02:28:17;;;;;;;12.18;9.18;;;;;;;18.02;58.90;99041.78;5031687;28;20040;-38
2021/05/06 02:30:43;;;;;;;11.80;8.93;;;;;;;18.22;57.31;99041.78;5031682;28;20139;-37
2021/05/06 02:33:09;;;;;;;13.80;8.70;;;;;;;18.28;57.45;99045.28;5031941;28;20060;-38
2021/05/06 02:35:35;;;;;;;10.45;7.82;;;;;;;18.31;57.03;99037.44;5031648;28;20040;-39
2021/05/06 02:38:01;;;;;;;8.15;7.07;;;;;;;18.17;55.76;99039.06;5031550;28;20500;-38
2021/05/06 02:40:27;;;;;;;11.88;7.10;;;;;;;18.18;56.13;99043.38;5031458;28;20025;-38
2021/05/06 02:42:52;;;;;;;9.32;6.85;;;;;;;18.06;55.68;99048.22;5031599;28;20025;-37
2021/05/06 02:45:17;;;;;;;11.25;6.35;;;;;;;17.88;56.24;99041.50;5031565;28;20025;-38
2021/05/06 02:47:43;;;;;;;7.95;6.15;;;;;;;17.88;56.26;99047.69;5030162;28;20026;-38
2021/05/06 02:50:14;;;;;;;9.85;6.38;;;;;;;17.76;56.90;99058.69;5031226;28;20029;-38
2021/05/06 02:58:49;;;;;;;10.00;5.93;;;;;;;17.94;55.15;99057.38;5031273;28;20037;-38
2021/05/06 03:03:40;;;;;;;12.15;5.43;;;;;;;17.75;54.21;99061.66;5031219;28;20036;-38
2021/05/06 03:06:05;;;;;;;8.88;5.10;;;;;;;17.89;53.05;99061.94;5031283;28;20034;-38
2021/05/06 03:08:36;;;;;;;9.55;4.45;;;;;;;18.02;52.37;99061.41;5031123;28;20549;-37
2021/05/06 03:14:03;;;;;;;8.50;4.40;;;;;;;18.08;52.94;99076.50;5030304;28;20049;-38
2021/05/06 03:24:22;;;;;;;8.77;3.90;;;;;;;18.24;50.37;99101.56;5030976;28;20112;-38
2021/05/06 03:26:48;;;;;;;7.72;3.88;;;;;;;17.96;50.35;99108.25;5030415;28;20025;-38
2021/05/06 03:29:19;;;;;;;7.00;3.60;;;;;;;18.04;49.65;99109.63;5028857;28;20102;-38
2021/05/06 03:34:43;;;;;;;6.78;3.40;;;;;;;18.12;49.35;99123.34;5030876;28;20490;-37
2021/05/06 04:03:09;;;;;;;7.07;3.15;;;;;;;17.80;47.48;99150.47;5038575;28;20088;-38
2021/05/06 04:35:38;;;;;;;6.65;4.32;;;;;;;22.89;36.46;99210.66;5030018;28;20056;-36
2021/05/06 04:38:05;;;;;;;4.22;2.80;;;;;;;22.75;36.40;99226.09;5028960;28;20397;-39
2021/05/06 04:56:50;;;;;;;13.13;8.65;;;;;;;23.82;34.93;99245.09;5032509;28;20033;-38
2021/05/06 05:04:39;;;;;;;5.97;4.13;;;;;;;25.21;32.14;99267.16;5032637;28;20063;-37
2021/05/06 05:12:11;;;;;;;5.93;2.85;;;;;;;26.48;30.38;99275.59;5032372;28;20068;-37
2021/05/06 05:20:09;;;;;;;5.43;2.00;;;;;;;26.55;29.86;99277.81;5032270;28;20033;-37
2021/05/06 05:28:17;;;;;;;6.13;2.10;;;;;;;27.93;27.94;99279.75;5031055;28;20045;-38
2021/05/06 05:30:42;;;;;;;3.30;1.90;;;;;;;27.30;27.94;99274.84;5032299;28;20030;-38
2021/05/06 05:33:11;;;;;;;3.95;2.05;;;;;;;27.00;28.69;99293.88;5032659;28;20037;-38
2021/05/06 05:35:53;;;;;;;6.00;2.00;;;;;;;27.54;27.91;99298.88;5032771;28;20025;-37
2021/05/06 05:56:40;;;;;;;9.05;2.28;;;;;;;29.23;26.86;99297.88;5031911;28;20437;-38
2021/05/06 05:59:06;;;;;;;6.28;2.22;;;;;;;29.20;27.34;99298.56;5031898;28;20438;-38
2021/05/06 06:01:31;;;;;;;4.18;1.85;;;;;;;29.48;26.81;99300.66;5032295;28;20034;-39
2021/05/06 06:03:56;;;;;;;5.80;2.30;;;;;;;28.51;27.50;99310.09;5032246;28;20539;-38
2021/05/06 06:06:22;;;;;;;5.57;2.40;;;;;;;29.32;26.80;99308.75;5032139;28;20025;-37
2021/05/06 06:08:48;;;;;;;7.63;2.65;;;;;;;30.39;25.79;99314.16;5032026;28;20029;-38
2021/05/06 06:11:13;;;;;;;7.90;3.13;;;;;;;30.75;25.36;99317.16;5032100;28;20103;-38
2021/05/06 06:13:40;;;;;;;5.53;2.67;;;;;;;31.07;24.83;99330.97;5031302;28;20552;-38
2021/05/06 06:21:03;;;;;;;7.50;2.33;;;;;;;29.70;26.30;99334.25;5024915;28;20022;-38
2021/05/06 06:23:29;;;;;;;6.85;3.25;;;;;;;30.26;26.45;99330.97;5012020;28;20088;-38
2021/05/06 06:25:55;;;;;;;6.45;2.28;;;;;;;30.50;25.24;99322.72;5017033;28;20029;-38
2021/05/06 06:28:21;;;;;;;7.18;2.28;;;;;;;30.44;24.77;99320.56;5031597;28;20034;-38
2021/05/06 06:30:46;;;;;;;3.50;1.88;;;;;;;30.92;24.52;99313.31;5031441;28;20025;-37
2021/05/06 06:33:12;;;;;;;4.18;2.10;;;;;;;29.89;25.43;99304.38;5031838;28;20036;-38
2021/05/06 06:35:37;;;;;;;6.10;2.50;;;;;;;30.69;24.74;99308.38;5030827;28;20520;-48
2021/05/06 06:38:03;;;;;;;5.38;2.28;;;;;;;30.78;24.79;99310.94;5029907;28;20029;-49
2021/05/06 06:40:29;;;;;;;6.10;2.50;;;;;;;30.06;25.89;99308.00;5029916;28;20037;-51
2021/05/06 06:42:54;;;;;;;4.13;2.22;;;;;;;30.00;26.19;99310.97;5030854;28;20029;-48
2021/05/06 06:45:20;;;;;;;4.70;1.92;;;;;;;30.67;24.32;99316.13;5023971;28;20072;-49
2021/05/06 06:47:55;;;;;;;5.72;2.13;;;;;;;30.33;24.90;99312.81;5026180;28;20053;-49
2021/05/06 06:50:21;;;;;;;12.50;5.40;;;;;;;29.94;24.71;99315.09;5029829;28;20032;-49
2021/05/06 06:52:46;;;;;;;4.75;2.15;;;;;;;29.23;25.60;99306.09;5031031;28;20108;-50
2021/05/06 06:55:12;;;;;;;6.45;2.00;;;;;;;28.55;26.74;99309.13;5030814;28;20444;-48
2021/05/06 06:57:37;;;;;;;3.65;2.38;;;;;;;29.79;25.87;99313.06;5031024;28;20071;-49
2021/05/06 07:00:04;;;;;;;14.10;5.88;;;;;;;29.62;25.93;99312.13;5030573;28;20022;-39
2021/05/06 07:02:30;;;;;;;12.32;5.65;;;;;;;29.23;25.99;99303.38;5021838;28;20546;-38
2021/05/06 07:04:55;;;;;;;14.90;6.28;;;;;;;30.06;25.96;99314.28;5010105;28;20104;-38
2021/05/06 07:07:21;;;;;;;4.35;2.30;;;;;;;30.06;25.42;99313.50;5023071;28;20071;-38
2021/05/06 07:09:46;;;;;;;3.20;1.85;;;;;;;29.54;25.95;99302.03;5030176;28;20038;-38
2021/05/06 07:12:12;;;;;;;6.18;2.00;;;;;;;30.06;25.24;99305.28;5029676;28;20054;-38
2021/05/06 07:14:38;;;;;;;8.15;2.67;;;;;;;30.54;24.96;99298.91;5029738;28;20480;-39
2021/05/06 07:17:04;;;;;;;5.80;2.30;;;;;;;29.78;25.57;99301.28;5029982;28;20021;-38
2021/05/06 07:19:30;;;;;;;7.55;2.08;;;;;;;29.87;25.13;99298.41;5030320;28;20110;-38
2021/05/06 07:21:55;;;;;;;9.95;2.20;;;;;;;29.66;25.75;99314.16;5022494;28;20030;-39
2021/05/06 07:24:21;;;;;;;9.25;2.97;;;;;;;29.10;26.70;99309.91;5010876;28;20038;-37
2021/05/06 07:26:46;;;;;;;4.30;2.00;;;;;;;28.37;27.77;99316.63;5010692;28;20438;-38
2021/05/06 07:29:15;;;;;;;9.23;3.10;;;;;;;28.38;27.62;99318.22;5016791;28;20057;-37
2021/05/06 07:31:41;;;;;;;6.32;2.53;;;;;;;29.17;26.71;99318.41;5029731;28;20052;-38
2021/05/06 07:34:06;;;;;;;9.55;2.47;;;;;;;29.07;26.96;99331.69;5013831;28;20029;-38
2021/05/06 07:36:31;;;;;;;8.45;3.20;;;;;;;28.55;27.17;99328.28;5012647;28;20029;-38
2021/05/06 07:38:57;;;;;;;10.18;3.20;;;;;;;29.19;26.27;99340.00;5022488;28;20026;-38
2021/05/06 07:41:24;;;;;;;8.02;3.20;;;;;;;28.60;27.22;99335.50;5018781;28;20765;-50
2021/05/06 07:43:49;;;;;;;8.65;4.15;;;;;;;28.58;27.00;99348.72;5005709;28;20462;-48
2021/05/06 07:46:15;;;;;;;5.50;2.50;;;;;;;28.52;26.85;99337.19;5011058;28;20030;-50
2021/05/06 07:48:40;;;;;;;7.93;2.55;;;;;;;28.95;26.79;99340.69;5029051;28;20066;-51
2021/05/06 07:51:06;;;;;;;7.75;2.80;;;;;;;29.60;25.86;99338.25;5030214;28;20017;-49
2021/05/06 07:54:05;;;;;;;14.00;4.47;;;;;;;29.57;26.12;99330.72;5029732;28;20025;-49
2021/05/06 07:56:23;;;;;;;9.48;3.70;;;;;;;28.93;26.22;99346.47;5030391;28;20048;-49
2021/05/06 07:58:49;;;;;;;19.23;9.82;;;;;;;29.58;25.78;99346.81;5028922;28;20029;-49
2021/05/06 08:01:14;;;;;;;7.65;2.97;;;;;;;29.87;25.62;99350.53;5028257;28;20503;-51
2021/05/06 08:03:40;;;;;;;12.88;8.02;;;;;;;30.85;24.92;99351.56;5026733;28;20059;-50
2021/05/06 08:06:05;;;;;;;7.38;2.47;;;;;;;29.69;25.70;99349.91;5027885;28;20032;-51
2021/05/06 08:08:31;;;;;;;4.82;2.47;;;;;;;29.46;25.75;99349.53;5027523;28;20021;-50
2021/05/06 08:10:57;;;;;;;4.97;2.08;;;;;;;30.04;24.84;99356.94;5027660;28;20104;-49
2021/05/06 08:13:26;;;;;;;3.20;2.10;;;;;;;29.93;25.21;99353.84;5027423;28;20488;-49
2021/05/06 08:15:51;;;;;;;6.53;2.22;;;;;;;30.46;24.65;99360.22;5027393;28;20029;-51
2021/05/06 08:18:17;;;;;;;6.45;2.45;;;;;;;30.34;24.33;99360.25;5028720;28;20449;-51
2021/05/06 08:20:43;;;;;;;5.30;2.67;;;;;;;30.59;24.52;99352.75;5029236;28;20033;-52
2021/05/06 08:23:11;;;;;;;4.53;2.90;;;;;;;30.26;24.50;99352.94;5029457;28;20045;-51
2021/05/06 08:25:37;;;;;;;;;;;;;;;30.18;24.93;99351.91;5030070;28;20036;-51
2021/05/06 08:28:03;;;;;;;6.05;2.10;;;;;;;29.99;24.87;99356.03;5029603;28;19909;-51
2021/05/06 08:30:29;;;;;;;5.95;2.55;;;;;;;30.89;25.58;99360.69;5029528;28;20088;-51
2021/05/06 08:32:55;;;;;;;4.20;2.10;;;;;;;31.58;23.20;99355.13;5029421;28;20033;-49
2021/05/06 08:35:20;;;;;;;3.58;1.90;;;;;;;31.70;23.14;99363.28;5029788;28;20037;-50
2021/05/06 08:37:46;;;;;;;4.85;2.38;;;;;;;31.76;23.24;99359.13;5029833;28;20037;-48
2021/05/06 08:40:11;;;;;;;6.55;2.20;;;;;;;31.40;23.67;99360.94;5029584;28;20447;-49
2021/05/06 08:42:38;;;;;;;6.43;2.30;;;;;;;31.06;24.79;99368.66;5029475;28;20067;-50
2021/05/06 08:45:04;;;;;;;10.07;2.40;;;;;;;30.87;23.98;99361.03;5027699;28;20404;-49
2021/05/06 08:47:31;;;;;;;12.20;2.25;;;;;;;31.06;24.16;99359.63;5029303;28;20037;-49
2021/05/06 08:49:58;;;;;;;11.20;2.75;;;;;;;31.73;23.39;99357.88;5029250;28;20037;-51
2021/05/06 08:52:23;;;;;;;30.55;4.57;;;;;;;31.55;23.53;99364.88;5029651;28;20207;-50
2021/05/06 08:54:49;;;;;;;39.15;4.70;;;;;;;31.06;23.72;99349.44;5029138;28;20030;-50
2021/05/06 08:57:15;;;;;;;6.55;2.10;;;;;;;31.18;23.02;99368.59;5027372;28;20409;-51
2021/05/06 08:59:40;;;;;;;7.75;1.83;;;;;;;30.66;24.04;99366.72;5029965;28;20021;-50
2021/05/06 09:02:06;;;;;;;5.40;2.10;;;;;;;30.76;23.57;99362.66;5028981;28;20121;-51
2021/05/06 09:04:31;;;;;;;3.00;1.90;;;;;;;30.65;23.36;99359.59;5029051;28;20029;-51
2021/05/06 09:06:58;;;;;;;8.88;1.90;;;;;;;31.86;21.86;99360.53;5029103;28;20037;-51
2021/05/06 09:09:24;;;;;;;4.57;2.40;;;;;;;31.37;23.04;99358.88;5029141;28;20473;-51
2021/05/06 09:11:57;;;;;;;4.05;2.10;;;;;;;31.87;22.29;99356.63;5029501;28;20021;-52
2021/05/06 09:14:38;;;;;;;3.65;1.90;;;;;;;32.05;22.12;99362.59;5029173;28;20037;-52
2021/05/06 09:17:22;;;;;;;6.28;1.85;;;;;;;31.79;21.55;99352.91;5029660;28;20048;-51
2021/05/06 09:20:05;;;;;;;4.82;1.90;;;;;;;32.29;21.73;99361.56;5029397;28;20017;-50
2021/05/06 09:22:44;;;;;;;4.88;2.33;;;;;;;32.24;21.84;99367.38;5028841;28;20477;-50
2021/05/06 09:25:26;;;;;;;7.07;2.00;;;;;;;32.24;21.72;99353.59;5028964;28;20466;-52
2021/05/06 09:28:15;;;;;;;4.80;2.38;;;;;;;31.30;23.11;99358.69;5029747;28;20029;-51
2021/05/06 09:31:07;;;;;;;6.83;1.97;;;;;;;30.55;22.08;99349.13;5026635;28;20045;-50
2021/05/06 09:33:35;;;;;;;2.95;1.90;;;;;;;30.14;22.91;99343.56;5032028;28;20381;-54
2021/05/06 09:36:09;;;;;;;5.00;2.30;;;;;;;30.62;22.68;99345.78;5031847;28;20084;-51
2021/05/06 09:38:36;;;;;;;3.92;1.90;;;;;;;31.56;22.91;99349.97;5032273;28;20048;-52
2021/05/06 09:41:04;;;;;;;6.45;1.70;;;;;;;30.89;22.43;99349.69;5032366;28;20025;-48
2021/05/06 09:43:40;;;;;;;5.78;2.05;;;;;;;29.93;22.84;99356.56;5032056;28;20059;-52
2021/05/06 09:46:24;;;;;;;3.75;2.50;;;;;;;29.92;22.93;99360.47;5031870;28;20022;-49
2021/05/06 09:49:14;;;;;;;4.82;1.70;;;;;;;29.57;23.95;99344.44;5031874;28;20097;-52
2021/05/06 09:51:48;;;;;;;3.05;1.70;;;;;;;29.87;23.72;99356.00;5031913;28;20055;-51
2021/05/06 09:54:15;;;;;;;13.18;2.88;;;;;;;30.26;22.65;99337.25;5031830;28;20049;-50
2021/05/06 09:56:42;;;;;;;4.43;1.80;;;;;;;30.06;22.75;99316.25;5032012;28;20041;-52
2021/05/06 09:59:08;;;;;;;3.80;2.10;;;;;;;30.11;22.91;99340.69;5031887;28;20029;-52
2021/05/06 10:01:38;;;;;;;3.08;1.75;;;;;;;30.73;22.23;99346.88;5031682;28;20029;-50
2021/05/06 10:04:22;;;;;;;2.45;1.70;;;;;;;30.40;23.59;99334.97;5031897;28;20115;-52
2021/05/06 10:07:14;;;;;;;4.60;1.70;;;;;;;30.98;22.29;99336.66;5031787;28;20037;-50
2021/05/06 10:09:52;;;;;;;5.35;1.85;;;;;;;30.40;21.12;99310.25;5031628;28;20035;-50
2021/05/06 10:12:18;;;;;;;6.07;1.67;;;;;;;30.09;20.34;99327.31;5031964;28;20062;-51
2021/05/06 10:14:45;;;;;;;6.95;1.98;;;;;;;30.23;19.97;99324.22;5031751;28;20026;-50
2021/05/06 10:17:12;;;;;;;2.63;1.50;;;;;;;30.51;20.16;99329.00;5031454;28;20029;-51
2021/05/06 10:19:39;;;;;;;2.70;1.60;;;;;;;30.93;19.92;99332.19;5013698;28;20040;-51
2021/05/06 10:22:06;;;;;;;7.28;2.33;;;;;;;31.03;19.54;99319.91;5031587;28;20033;-49
2021/05/06 10:24:31;;;;;;;5.25;2.47;;;;;;;30.83;20.05;99320.91;5030556;28;20036;-50
2021/05/06 10:26:57;;;;;;;7.03;1.88;;;;;;;30.78;20.09;99330.16;5030029;28;20385;-52
2021/05/06 10:29:22;;;;;;;6.20;2.60;;;;;;;30.47;20.18;99326.16;5013397;28;20033;-50
2021/05/06 10:31:48;;;;;;;4.72;3.00;;;;;;;30.99;19.03;99324.50;5030122;28;20438;-51
2021/05/06 10:34:17;;;;;;;2.30;1.63;;;;;;;30.77;20.12;99321.13;5013102;28;20452;-51
2021/05/06 10:36:47;;;;;;;6.38;2.22;;;;;;;30.56;19.70;99332.31;5030212;28;20055;-51
2021/05/06 10:39:13;;;;;;;4.45;1.60;;;;;;;31.15;19.46;99333.59;5029883;28;20103;-50
2021/05/06 10:41:38;;;;;;;3.83;1.60;;;;;;;31.03;20.28;99325.38;5031344;28;20486;-51
2021/05/06 10:44:08;;;;;;;17.20;1.75;;;;;;;30.90;19.37;99326.59;5031129;28;20025;-50
2021/05/06 10:47:02;;;;;;;4.07;1.55;;;;;;;30.83;19.49;99320.91;5031126;28;20123;-51
2021/05/06 10:49:51;;;;;;;2.88;1.40;;;;;;;30.89;18.71;99323.03;5030952;28;20026;-52
2021/05/06 10:52:17;;;;;;;3.83;2.08;;;;;;;31.08;19.19;99308.66;5011636;28;20033;-50
2021/05/06 10:54:45;;;;;;;2.67;1.90;;;;;;;31.64;19.57;99304.22;5031260;28;20025;-51
2021/05/06 10:57:11;;;;;;;6.40;2.03;;;;;;;31.56;18.63;99319.72;5030808;28;20535;-50
2021/05/06 10:59:43;;;;;;;4.15;2.20;;;;;;;30.92;19.04;99316.88;5030566;28;20021;-52
2021/05/06 11:02:09;;;;;;;3.38;1.90;;;;;;;31.10;17.68;99311.84;5030703;28;20041;-51
2021/05/06 11:04:36;;;;;;;3.22;1.40;;;;;;;31.59;18.11;99316.28;5030792;28;20163;-50
2021/05/06 11:07:12;;;;;;;2.13;1.40;;;;;;;31.44;18.29;99326.09;5030624;28;20450;-51
2021/05/06 11:09:37;;;;;;;6.32;1.63;;;;;;;31.28;17.85;99322.50;5030702;28;20539;-52
2021/05/06 11:12:15;;;;;;;1.77;1.20;;;;;;;31.52;18.40;99316.88;5030852;28;20032;-52
2021/05/06 11:15:02;;;;;;;3.35;1.20;;;;;;;31.36;17.51;99329.81;5031224;28;20037;-51
2021/05/06 11:17:44;;;;;;;2.70;0.93;;;;;;;30.96;17.16;99325.22;5031198;28;20037;-52
2021/05/06 11:20:09;;;;;;;5.93;1.20;;;;;;;31.06;17.11;99323.91;5030958;28;20132;-51
2021/05/06 11:22:47;;;;;;;3.53;1.10;;;;;;;31.14;16.97;99325.69;5030657;28;20053;-52
2021/05/06 11:25:29;;;;;;;2.00;1.27;;;;;;;31.28;16.60;99322.50;5030593;28;20108;-52
2021/05/06 11:27:55;;;;;;;4.57;1.38;;;;;;;30.99;17.08;99310.75;5030985;28;20034;-53
2021/05/06 11:30:33;;;;;;;2.60;1.10;;;;;;;30.63;17.75;99311.69;5029124;28;20029;-49
2021/05/06 11:33:28;;;;;;;3.67;1.50;;;;;;;30.68;17.55;99316.94;5030497;28;20131;-52
2021/05/06 11:36:00;;;;;;;1.85;1.48;;;;;;;31.04;17.44;99309.72;5028881;28;20536;-52
2021/05/06 11:38:35;;;;;;;5.15;1.60;;;;;;;30.97;17.25;99302.06;5030451;28;20033;-51
2021/05/06 11:41:25;;;;;;;1.85;1.33;;;;;;;30.99;17.26;99300.56;5030265;28;20029;-50
2021/05/06 11:43:58;;;;;;;1.85;1.48;;;;;;;30.95;16.71;99304.38;5030197;28;20026;-51
2021/05/06 11:46:30;;;;;;;6.05;1.55;;;;;;;30.89;17.50;99303.00;5030278;28;20447;-52
2021/05/06 11:48:58;;;;;;;2.40;1.30;;;;;;;30.80;17.41;99298.44;5010821;28;20128;-51
2021/05/06 11:51:31;;;;;;;3.50;1.60;;;;;;;30.88;18.75;99298.66;5009879;28;20059;-51
2021/05/06 11:54:22;;;;;;;3.83;1.75;;;;;;;30.70;18.10;99300.91;5010447;28;20132;-50
2021/05/06 11:56:54;;;;;;;26.48;7.20;;;;;;;30.82;17.82;99298.09;5010316;28;20040;-51
2021/05/06 11:59:30;;;;;;;6.78;2.17;;;;;;;31.39;17.21;99301.59;5026760;28;20040;-51
2021/05/06 12:01:59;;;;;;;3.05;1.90;;;;;;;31.89;17.01;99305.63;5030243;28;20080;-52
2021/05/06 12:04:32;;;;;;;5.25;1.42;;;;;;;31.13;17.83;99297.44;5029964;28;20025;-50
2021/05/06 12:06:58;;;;;;;4.50;1.50;;;;;;;31.35;16.77;99292.47;5028623;28;20460;-52
2021/05/06 12:09:25;;;;;;;1.40;1.25;;;;;;;31.29;17.51;99291.16;5029477;28;20119;-52
2021/05/06 12:11:51;;;;;;;2.67;1.58;;;;;;;31.27;17.36;99286.00;5029858;28;20037;-52
2021/05/06 12:14:48;;;;;;;4.07;1.27;;;;;;;31.45;18.06;99293.88;5029736;28;20135;-49
2021/05/06 12:17:18;;;;;;;2.55;1.55;;;;;;;31.16;17.91;99291.22;5028744;28;20033;-50
2021/05/06 12:19:44;;;;;;;3.63;1.30;;;;;;;30.74;18.27;99291.63;5029811;28;20045;-50
2021/05/06 12:22:10;;;;;;;4.07;1.40;;;;;;;30.74;18.14;99282.59;5029539;28;20021;-49
2021/05/06 12:24:37;;;;;;;5.50;1.40;;;;;;;30.98;18.10;99285.25;5029824;28;20091;-49
2021/05/06 12:27:22;;;;;;;3.97;1.40;;;;;;;31.93;17.64;99275.44;5029171;28;20025;-48
2021/05/06 12:29:48;;;;;;;2.33;1.40;;;;;;;32.15;16.97;99282.22;5029394;28;20052;-50
2021/05/06 12:32:24;;;;;;;1.75;1.33;;;;;;;31.63;17.60;99269.63;5030128;28;20075;-49
2021/05/06 12:34:50;;;;;;;7.57;1.70;;;;;;;31.36;17.44;99272.09;5028970;28;20037;-49
2021/05/06 12:37:16;;;;;;;3.03;1.20;;;;;;;31.42;17.52;99270.66;5029255;28;20017;-49
2021/05/06 12:39:41;;;;;;;3.65;1.30;;;;;;;30.74;17.97;99277.09;5028211;28;20048;-50
2021/05/06 12:42:07;;;;;;;3.05;1.38;;;;;;;30.98;18.85;99270.72;5029559;28;20489;-49
2021/05/06 12:44:36;;;;;;;3.97;1.40;;;;;;;31.05;18.38;99264.59;5029603;28;20025;-49
2021/05/06 12:47:14;;;;;;;;;;;;;;;31.55;18.23;99265.91;5029714;28;20025;-49
2021/05/06 12:49:39;;;;;;;2.75;1.40;;;;;;;31.29;18.15;99260.91;5029405;28;19917;-49
2021/05/06 12:52:05;;;;;;;2.40;1.02;;;;;;;31.37;17.79;99263.47;5029724;28;20123;-49
2021/05/06 12:54:34;;;;;;;1.48;1.20;;;;;;;31.75;17.34;99250.25;5029330;28;20100;-49
2021/05/06 12:57:13;;;;;;;4.63;1.30;;;;;;;31.74;18.21;99248.69;5029407;28;20030;-49
2021/05/06 12:59:39;;;;;;;1.75;1.20;;;;;;;32.53;16.88;99251.16;5028985;28;20099;-50
2021/05/06 13:02:08;;;;;;;2.40;1.20;;;;;;;32.19;17.30;99247.31;5030709;28;20482;-51
2021/05/06 13:04:42;;;;;;;3.15;1.30;;;;;;;31.09;18.59;99238.84;5032876;28;20025;-49
2021/05/06 13:07:07;;;;;;;2.33;1.45;;;;;;;30.85;19.00;99252.69;5032525;28;20025;-52
2021/05/06 13:09:40;;;;;;;2.55;1.40;;;;;;;31.14;18.50;99246.00;5032149;28;20454;-49
2021/05/06 13:12:17;;;;;;;5.82;1.60;;;;;;;31.20;18.22;99249.28;5031669;28;20048;-50
2021/05/06 13:15:01;;;;;;;3.35;2.17;;;;;;;31.77;18.07;99242.44;5032880;28;20412;-50
2021/05/06 13:17:26;;;;;;;2.30;1.60;;;;;;;31.58;18.56;99245.94;5032989;28;20033;-51
2021/05/06 13:19:52;;;;;;;2.25;1.30;;;;;;;32.07;18.06;99248.25;5032481;28;20478;-51
2021/05/06 13:22:19;;;;;;;2.28;1.70;;;;;;;31.76;18.59;99236.16;5032121;28;20052;-48
2021/05/06 13:24:46;;;;;;;2.30;1.73;;;;;;;32.24;17.45;99244.28;5032642;28;20435;-51
2021/05/06 13:27:15;;;;;;;3.85;1.48;;;;;;;31.91;17.32;99236.47;5032965;28;20048;-49
2021/05/06 13:29:48;;;;;;;3.13;1.27;;;;;;;31.84;16.62;99236.31;5032443;28;20029;-50
2021/05/06 13:32:14;;;;;;;2.28;1.40;;;;;;;31.06;17.43;99239.53;5032816;28;20037;-53
2021/05/06 13:34:52;;;;;;;3.47;1.60;;;;;;;31.31;17.99;99236.63;5032646;28;20037;-51
2021/05/06 13:37:17;;;;;;;4.65;1.50;;;;;;;31.43;17.98;99244.75;5032599;28;20036;-50
2021/05/06 13:39:43;;;;;;;6.93;1.42;;;;;;;31.57;17.64;99247.09;5032498;28;20021;-49
2021/05/06 13:42:08;;;;;;;1.67;1.27;;;;;;;31.23;18.23;99237.59;5032271;28;20026;-49
2021/05/06 13:44:35;;;;;;;4.75;1.30;;;;;;;31.40;17.39;99237.25;5032519;28;20033;-51
2021/05/06 13:47:05;;;;;;;5.00;1.50;;;;;;;31.72;16.85;99239.97;5032460;28;20035;-50
2021/05/06 13:49:31;;;;;;;1.45;1.10;;;;;;;30.95;16.77;99232.97;5032508;28;20400;-49
2021/05/06 13:51:57;;;;;;;2.33;1.48;;;;;;;30.24;17.48;99240.78;5032482;28;20083;-50
2021/05/06 13:54:23;;;;;;;2.58;1.33;;;;;;;30.01;17.66;99235.00;5032139;28;20045;-51
2021/05/06 13:56:48;;;;;;;3.08;1.25;;;;;;;30.68;17.10;99234.56;5032224;28;20067;-51
2021/05/06 13:59:14;;;;;;;2.40;1.50;;;;;;;30.72;18.16;99240.97;5032040;28;20405;-50
2021/05/06 14:01:40;;;;;;;2.40;1.50;;;;;;;30.88;18.71;99230.81;5031114;28;20029;-48
2021/05/06 14:04:05;;;;;;;3.85;1.42;;;;;;;30.77;18.78;99236.00;5031821;28;20071;-49
2021/05/06 14:06:31;;;;;;;2.60;1.30;;;;;;;31.33;17.93;99234.31;5032332;28;20031;-49
2021/05/06 14:08:57;;;;;;;5.13;1.80;;;;;;;31.16;17.77;99232.72;5032430;28;20108;-49
2021/05/06 14:11:25;;;;;;;2.55;1.40;;;;;;;30.45;18.09;99229.63;5032530;28;20025;-49
2021/05/06 14:13:51;;;;;;;2.70;1.42;;;;;;;30.56;18.07;99233.47;5031375;28;20056;-48
2021/05/06 14:16:17;;;;;;;3.00;1.60;;;;;;;30.32;19.00;99231.63;5032241;28;20025;-52
2021/05/06 14:18:42;;;;;;;3.75;1.55;;;;;;;30.79;18.13;99232.91;5032299;28;20026;-49
2021/05/06 14:21:10;;;;;;;7.07;1.60;;;;;;;30.09;18.79;99239.53;5032343;28;20032;-50
2021/05/06 14:23:43;;;;;;;2.90;1.90;;;;;;;30.51;18.55;99241.16;5031731;28;20095;-50
2021/05/06 14:26:09;;;;;;;2.28;1.50;;;;;;;30.20;18.84;99246.16;5032054;28;20025;-48
2021/05/06 14:28:34;;;;;;;1.60;1.50;;;;;;;30.34;18.90;99237.56;5031889;28;20047;-51
2021/05/06 14:31:00;;;;;;;2.40;1.50;;;;;;;29.76;18.55;99226.81;5031734;28;20030;-51
2021/05/06 14:33:25;;;;;;;2.75;1.45;;;;;;;29.66;19.14;99224.47;5032110;28;20030;-51
2021/05/06 14:35:50;;;;;;;2.15;1.30;;;;;;;30.22;19.19;99229.34;5031606;28;20029;-51
2021/05/06 14:38:16;;;;;;;2.72;1.42;;;;;;;30.53;18.53;99234.16;5031581;28;20040;-50
2021/05/06 14:40:41;;;;;;;4.85;1.90;;;;;;;30.25;19.45;99241.56;5032028;28;20033;-53
2021/05/06 14:43:07;;;;;;;3.45;1.52;;;;;;;29.91;20.05;99236.28;5031656;28;20029;-52
2021/05/06 14:45:33;;;;;;;5.63;1.83;;;;;;;30.20;19.45;99217.94;5031656;28;20511;-49
2021/05/06 14:47:59;;;;;;;2.60;1.42;;;;;;;30.18;19.22;99234.72;5031572;28;20029;-51
2021/05/06 14:50:25;;;;;;;3.55;1.80;;;;;;;30.33;19.13;99244.22;5031283;28;20025;-51
2021/05/06 14:52:53;;;;;;;2.28;1.65;;;;;;;30.31;19.37;99240.16;5031052;28;20029;-51
2021/05/06 14:55:19;;;;;;;3.20;1.90;;;;;;;30.49;19.65;99243.47;5030946;28;20537;-50
2021/05/06 14:57:44;;;;;;;3.40;1.55;;;;;;;30.58;19.21;99235.88;5031059;28;20125;-52
2021/05/06 15:00:10;;;;;;;2.50;1.60;;;;;;;30.82;18.75;99237.69;5031143;28;20040;-49
2021/05/06 15:02:36;;;;;;;3.67;1.50;;;;;;;30.03;18.46;99221.75;5031350;28;20567;-50
2021/05/06 15:05:02;;;;;;;3.70;1.65;;;;;;;29.21;18.89;99225.41;5029924;28;20567;-48
2021/05/06 15:07:27;;;;;;;4.43;1.70;;;;;;;29.15;18.58;99229.50;5031059;28;20025;-49
2021/05/06 15:09:53;;;;;;;1.83;1.23;;;;;;;29.00;19.10;99219.97;5031093;28;20026;-50
2021/05/06 15:12:18;;;;;;;1.92;1.30;;;;;;;28.93;18.97;99225.22;5030872;28;20080;-51